Time;durP1;ratioP1;P1;durP2;ratioP2;P2;SDS_P1;SDS_P2;PMS_P1;PMS_P2;Temp;Humidity;BMP_temperature;BMP_pressure;BME280_temperature;BME280_humidity;BME280_pressure;Samples;Min_cycle;Max_cycle;Signal;HPM_P1;HPM_P2
2022/05/12 14:03:34;;;;;;;4.67;1.90;;;24.60;39.90;;;;;;5077879;27;20611;-76
2022/05/12 14:06:28;;;;;;;5.23;1.53;;;24.30;39.40;;;;;;5057956;28;20439;-77
2022/05/12 14:09:18;;;;;;;4.70;1.47;;;24.30;42.10;;;;;;5059319;28;20447;-78
2022/05/12 14:12:09;;;;;;;2.50;1.30;;;24.50;41.10;;;;;;5059272;28;20444;-77
2022/05/12 14:21:06;;;;;;;4.63;1.40;;;24.90;42.40;;;;;;5052392;28;20875;-77
2022/05/12 14:23:51;;;;;;;13.67;1.67;;;24.90;38.90;;;;;;5060406;28;20531;-78
2022/05/12 14:26:37;;;;;;;5.03;1.67;;;24.90;38.80;;;;;;5058520;28;20448;-78
2022/05/12 14:29:23;;;;;;;8.50;1.70;;;24.80;39.10;;;;;;5064935;28;20558;-78
2022/05/12 14:32:11;;;;;;;6.20;1.77;;;25.00;39.00;;;;;;5062646;28;20494;-76
2022/05/12 14:34:58;;;;;;;5.90;1.57;;;25.10;39.10;;;;;;5060630;28;20474;-76
2022/05/12 14:37:49;;;;;;;6.10;1.53;;;25.30;38.00;;;;;;5064944;28;20511;-76
2022/05/12 14:40:35;;;;;;;4.40;1.50;;;25.50;39.60;;;;;;5057907;28;20475;-78
2022/05/12 14:43:20;;;;;;;3.37;1.13;;;25.50;36.50;;;;;;5058251;28;20435;-77
2022/05/12 14:46:06;;;;;;;3.47;1.47;;;25.50;37.30;;;;;;5062984;28;20450;-77
2022/05/12 14:48:54;;;;;;;5.30;1.87;;;25.30;37.10;;;;;;5060716;28;20785;-77
2022/05/12 14:51:40;;;;;;;4.07;1.47;;;25.10;37.40;;;;;;5057167;28;20479;-77
2022/05/12 14:54:27;;;;;;;3.87;1.47;;;25.30;38.00;;;;;;5058378;28;20423;-76
2022/05/12 14:57:14;;;;;;;4.27;1.33;;;25.50;37.60;;;;;;5059031;28;20474;-77
2022/05/12 14:59:59;;;;;;;6.37;1.80;;;25.20;38.30;;;;;;5051163;28;20471;-76
2022/05/12 15:02:45;;;;;;;9.17;1.67;;;24.80;39.60;;;;;;5064015;28;20513;-77
2022/05/12 15:05:31;;;;;;;6.50;1.43;;;24.70;39.80;;;;;;5061617;28;20458;-77
2022/05/12 15:08:17;;;;;;;2.93;1.57;;;24.50;38.60;;;;;;5061045;28;20458;-77
2022/05/12 15:11:07;;;;;;;3.03;1.40;;;24.40;40.70;;;;;;5058284;28;20489;-77
2022/05/12 15:13:53;;;;;;;3.43;1.60;;;24.50;40.30;;;;;;5056386;28;20455;-78
2022/05/12 15:16:40;;;;;;;3.30;1.20;;;24.50;40.00;;;;;;5045966;28;20447;-77
2022/05/12 15:19:27;;;;;;;4.87;1.13;;;24.50;41.00;;;;;;5042057;28;20467;-77
2022/05/12 15:22:13;;;;;;;5.77;1.90;;;24.50;41.50;;;;;;5046796;28;20423;-76
2022/05/12 15:24:59;;;;;;;4.57;1.70;;;24.40;43.10;;;;;;5054688;28;20529;-78
2022/05/12 15:27:50;;;;;;;6.13;1.90;;;24.40;44.30;;;;;;5049341;28;20447;-77
2022/05/12 15:30:35;;;;;;;6.53;2.10;;;24.20;43.00;;;;;;5046998;28;20840;-77
2022/05/12 15:33:22;;;;;;;4.10;2.30;;;24.20;44.00;;;;;;5047491;28;20470;-77
2022/05/12 15:36:09;;;;;;;6.60;1.50;;;24.30;45.80;;;;;;5052197;28;20448;-77
2022/05/12 15:38:54;;;;;;;4.90;2.13;;;24.30;44.20;;;;;;5046286;28;20847;-77
2022/05/12 15:41:41;;;;;;;4.00;1.63;;;24.40;42.50;;;;;;5053668;28;20538;-77
2022/05/12 15:44:28;;;;;;;5.97;2.90;;;24.40;42.40;;;;;;5046207;28;20455;-77
2022/05/12 15:47:19;;;;;;;7.00;2.00;;;24.30;43.10;;;;;;5047064;28;20448;-77
2022/05/12 15:50:09;;;;;;;7.00;1.57;;;24.20;44.00;;;;;;5042961;28;20993;-78
2022/05/12 15:52:55;;;;;;;4.27;1.50;;;24.30;44.20;;;;;;5054932;28;21004;-78
2022/05/12 15:55:40;;;;;;;4.80;2.40;;;24.00;41.40;;;;;;5048162;28;20424;-77
2022/05/12 15:58:26;;;;;;;7.80;3.17;;;24.00;43.00;;;;;;5040181;28;21217;-76
2022/05/12 16:01:15;;;;;;;9.60;1.97;;;23.90;41.20;;;;;;5047913;28;20455;-76
2022/05/12 16:04:01;;;;;;;4.67;1.60;;;23.90;42.70;;;;;;5040204;28;20462;-76
2022/05/12 16:06:47;;;;;;;4.10;1.57;;;23.90;42.80;;;;;;5045088;28;20422;-77
2022/05/12 16:09:32;;;;;;;4.90;1.83;;;23.90;42.50;;;;;;5042535;28;21014;-76
2022/05/12 16:12:30;;;;;;;4.83;1.60;;;23.80;41.50;;;;;;5040264;28;20468;-77
2022/05/12 16:15:18;;;;;;;5.20;1.57;;;23.70;43.50;;;;;;5046453;28;20452;-77
2022/05/12 16:18:06;;;;;;;3.77;1.60;;;23.50;43.30;;;;;;5045343;28;20460;-76
2022/05/12 16:20:52;;;;;;;6.70;1.97;;;23.40;42.60;;;;;;5050831;28;20531;-77
2022/05/12 16:23:38;;;;;;;4.33;1.50;;;23.50;43.30;;;;;;5047283;28;20951;-77
2022/05/12 16:26:24;;;;;;;3.33;1.60;;;23.40;44.80;;;;;;5047977;28;20444;-77
2022/05/12 16:29:11;;;;;;;4.07;1.67;;;23.40;43.20;;;;;;5040053;28;20472;-76
2022/05/12 16:31:57;;;;;;;7.23;1.80;;;23.30;43.10;;;;;;5040854;28;20813;-77
2022/05/12 16:34:45;;;;;;;6.80;1.77;;;23.20;43.90;;;;;;5042778;28;20534;-77
2022/05/12 16:37:31;;;;;;;4.47;1.47;;;23.30;45.00;;;;;;5051537;28;20452;-77
2022/05/12 16:40:18;;;;;;;6.03;1.63;;;23.40;45.30;;;;;;5036801;28;20567;-77
2022/05/12 16:43:04;;;;;;;4.03;1.30;;;23.60;46.50;;;;;;5049002;28;20582;-78
2022/05/12 16:45:50;;;;;;;4.67;1.50;;;23.70;47.50;;;;;;5045616;28;20452;-77
2022/05/12 16:48:35;;;;;;;5.60;2.07;;;23.50;43.30;;;;;;5040983;28;20529;-77
2022/05/12 16:51:22;;;;;;;5.30;1.67;;;23.40;45.70;;;;;;5050566;28;20455;-77
2022/05/12 16:54:08;;;;;;;8.23;2.00;;;23.40;44.80;;;;;;5050407;28;20475;-78
2022/05/12 16:56:54;;;;;;;6.33;1.83;;;23.20;46.20;;;;;;5039898;28;20444;-76
2022/05/12 16:59:41;;;;;;;9.30;3.10;;;23.30;47.60;;;;;;5033318;28;21100;-78
2022/05/12 17:02:30;;;;;;;6.20;1.67;;;23.30;47.60;;;;;;5042585;28;20452;-78
2022/05/12 17:05:16;;;;;;;5.70;1.73;;;23.20;48.40;;;;;;5037945;28;20452;-77
2022/05/12 17:08:04;;;;;;;9.03;2.10;;;23.10;47.80;;;;;;5035756;28;20456;-77
2022/05/12 17:10:50;;;;;;;5.90;1.60;;;23.00;46.90;;;;;;5043512;28;21000;-76
2022/05/12 17:13:36;;;;;;;9.63;2.30;;;22.90;47.80;;;;;;5044383;28;20512;-77
2022/05/12 17:16:22;;;;;;;16.33;2.30;;;22.80;48.20;;;;;;5037108;28;20456;-77
2022/05/12 17:19:08;;;;;;;4.83;1.70;;;22.80;50.90;;;;;;5034748;28;20485;-77
2022/05/12 17:21:53;;;;;;;5.77;1.60;;;22.80;57.10;;;;;;5036790;28;20485;-76
2022/05/12 17:24:41;;;;;;;3.30;1.33;;;22.70;67.10;;;;;;5037353;28;20952;-76
2022/05/12 17:27:27;;;;;;;5.23;1.90;;;22.60;68.70;;;;;;5035856;28;20447;-77
2022/05/12 17:30:13;;;;;;;7.70;1.77;;;22.60;72.50;;;;;;5039117;28;20482;-76
2022/05/12 17:32:59;;;;;;;4.30;1.60;;;22.50;74.50;;;;;;5034306;28;20480;-77
2022/05/12 17:35:45;;;;;;;4.83;1.70;;;22.50;78.10;;;;;;5040771;28;20819;-76
2022/05/12 17:38:31;;;;;;;8.80;2.13;;;22.40;77.90;;;;;;5032124;28;20459;-76
2022/05/12 17:41:17;;;;;;;10.03;1.90;;;22.40;78.60;;;;;;5032270;28;20444;-77
2022/05/12 17:44:04;;;;;;;7.70;2.33;;;22.40;78.90;;;;;;5040763;28;21275;-76
2022/05/12 17:46:51;;;;;;;4.60;1.80;;;22.30;79.40;;;;;;5035926;28;20828;-76
2022/05/12 17:49:37;;;;;;;3.63;1.97;;;22.20;80.60;;;;;;5036594;28;20476;-76
2022/05/12 17:52:23;;;;;;;4.33;1.57;;;22.10;81.00;;;;;;5038836;28;20809;-76
2022/05/12 17:55:09;;;;;;;7.93;2.40;;;22.00;81.80;;;;;;5038073;28;20497;-77
2022/05/12 17:57:56;;;;;;;4.13;1.70;;;22.00;83.30;;;;;;5036012;28;20455;-76
2022/05/12 18:00:43;;;;;;;4.37;1.97;;;21.90;82.90;;;;;;5036382;28;21096;-77
2022/05/12 18:03:28;;;;;;;5.40;1.87;;;21.90;85.10;;;;;;5036385;28;20558;-78
2022/05/12 18:06:19;;;;;;;7.60;1.87;;;21.80;86.50;;;;;;5045372;28;20877;-77
2022/05/12 18:09:05;;;;;;;8.47;2.37;;;21.70;85.30;;;;;;5040757;28;20460;-77
2022/05/12 18:11:50;;;;;;;4.03;2.03;;;21.60;87.30;;;;;;5047029;28;20559;-76
2022/05/12 18:14:38;;;;;;;3.83;2.00;;;21.50;86.80;;;;;;5039644;28;20470;-77
2022/05/12 18:17:24;;;;;;;4.60;2.10;;;21.40;86.80;;;;;;5044065;28;20472;-76
2022/05/12 18:20:12;;;;;;;6.20;1.70;;;21.20;86.00;;;;;;5053562;28;20455;-77
2022/05/12 18:22:58;;;;;;;4.37;2.13;;;21.30;87.90;;;;;;5045265;28;20463;-76
2022/05/12 18:25:44;;;;;;;6.10;2.17;;;21.10;89.30;;;;;;5047266;28;20439;-76
2022/05/12 18:28:30;;;;;;;4.00;2.00;;;21.10;90.00;;;;;;5035900;28;20517;-76
2022/05/12 18:31:17;;;;;;;5.50;1.90;;;20.90;89.20;;;;;;5050353;28;20964;-76
2022/05/12 18:34:03;;;;;;;4.97;2.17;;;20.80;88.80;;;;;;5046091;28;20474;-76
2022/05/12 18:36:49;;;;;;;8.57;2.10;;;20.80;89.10;;;;;;5038823;28;20516;-76
2022/05/12 18:39:35;;;;;;;8.13;2.93;;;20.70;89.00;;;;;;5042138;28;20451;-76
2022/05/12 18:42:20;;;;;;;3.73;2.20;;;20.60;89.50;;;;;;5043234;28;20422;-77
2022/05/12 18:45:07;;;;;;;9.37;1.73;;;20.50;90.00;;;;;;5055089;28;21014;-77
2022/05/12 18:47:55;;;;;;;3.53;1.83;;;20.30;90.50;;;;;;5040947;28;20535;-76
2022/05/12 18:50:41;;;;;;;5.20;1.90;;;20.20;90.10;;;;;;5047142;28;20559;-76
2022/05/12 18:53:26;;;;;;;5.00;2.17;;;20.10;90.40;;;;;;5049331;28;21029;-76
2022/05/12 18:56:12;;;;;;;5.60;2.00;;;20.10;88.50;;;;;;5052833;28;20973;-77
2022/05/12 18:58:58;;;;;;;3.50;2.00;;;20.00;90.00;;;;;;5051560;28;20447;-77
2022/05/12 19:01:43;;;;;;;4.23;1.77;;;20.00;89.60;;;;;;5047315;28;20429;-78
2022/05/12 19:04:30;;;;;;;4.30;2.00;;;19.90;89.90;;;;;;5048844;28;20994;-77
2022/05/12 19:07:22;;;;;;;3.50;1.73;;;20.00;85.20;;;;;;5044222;28;20452;-77
2022/05/12 19:10:08;;;;;;;4.00;1.70;;;20.20;87.30;;;;;;5045543;28;20563;-77
2022/05/12 19:12:55;;;;;;;7.73;1.63;;;20.10;84.00;;;;;;5039257;28;20484;-77
2022/05/12 19:15:41;;;;;;;8.73;2.90;;;20.10;80.60;;;;;;5044731;28;20522;-78
2022/05/12 19:18:27;;;;;;;11.20;1.97;;;20.00;82.80;;;;;;5050488;28;20427;-78
2022/05/12 19:21:14;;;;;;;13.73;2.03;;;20.00;74.60;;;;;;5045781;28;20463;-76
2022/05/12 19:24:00;;;;;;;3.93;1.37;;;20.10;67.70;;;;;;5050432;28;20443;-77
2022/05/12 19:26:46;;;;;;;6.30;2.27;;;20.20;65.10;;;;;;5043636;28;20466;-77
2022/05/12 19:29:31;;;;;;;3.30;1.70;;;20.30;63.90;;;;;;5042773;28;20455;-77
2022/05/12 19:32:17;;;;;;;10.83;2.33;;;20.30;73.10;;;;;;5041142;28;20533;-77
2022/05/12 19:35:03;;;;;;;9.13;1.80;;;20.40;74.40;;;;;;5050020;28;20455;-77
2022/05/12 19:37:51;;;;;;;7.43;1.97;;;20.30;73.90;;;;;;5045882;28;20441;-77
2022/05/12 19:40:39;;;;;;;4.97;2.23;;;20.20;74.80;;;;;;5041610;28;20471;-77
2022/05/12 19:43:25;;;;;;;5.00;1.53;;;20.10;74.70;;;;;;5043562;28;20440;-77
2022/05/12 19:46:10;;;;;;;4.43;1.73;;;20.00;73.50;;;;;;5046954;28;20506;-77
2022/05/12 19:48:56;;;;;;;5.07;1.90;;;20.00;78.00;;;;;;5038168;28;20427;-77
2022/05/12 19:51:41;;;;;;;3.87;2.00;;;19.90;70.80;;;;;;5041049;28;20448;-77
2022/05/12 19:54:29;;;;;;;5.73;1.60;;;19.80;77.30;;;;;;5044913;28;20455;-75
2022/05/12 19:57:15;;;;;;;8.30;2.30;;;19.80;77.60;;;;;;5046557;28;20505;-79
2022/05/12 20:00:00;;;;;;;4.87;1.73;;;19.80;76.20;;;;;;5049269;28;20478;-78
2022/05/12 20:02:46;;;;;;;2.87;1.50;;;19.70;76.40;;;;;;5048335;28;20451;-78
2022/05/12 20:05:32;;;;;;;5.50;1.90;;;19.70;74.90;;;;;;5050365;28;20582;-78
2022/05/12 20:08:18;;;;;;;5.90;1.97;;;19.70;68.20;;;;;;5048560;28;20424;-78
2022/05/12 20:11:06;;;;;;;8.10;2.30;;;19.80;66.20;;;;;;5047966;28;20491;-77
2022/05/12 20:13:52;;;;;;;3.90;1.50;;;19.90;70.20;;;;;;5050767;28;20490;-77
2022/05/12 20:16:38;;;;;;;2.83;1.60;;;19.90;65.70;;;;;;5047871;28;20590;-76
2022/05/12 20:19:24;;;;;;;5.23;1.70;;;20.00;68.90;;;;;;5045587;28;20599;-77
2022/05/12 20:22:11;;;;;;;8.30;2.03;;;20.10;68.10;;;;;;5050815;28;20444;-77
2022/05/12 20:24:57;;;;;;;5.80;1.97;;;20.10;68.60;;;;;;5047415;28;20567;-78
2022/05/12 20:27:44;;;;;;;4.50;1.90;;;20.10;69.90;;;;;;5050541;28;20482;-77
2022/05/12 20:30:32;;;;;;;3.63;1.53;;;20.00;71.20;;;;;;5045044;28;20547;-77
2022/05/12 20:33:18;;;;;;;5.70;1.50;;;20.00;69.80;;;;;;5052504;28;20478;-77
2022/05/12 20:36:03;;;;;;;4.20;1.70;;;20.00;68.30;;;;;;5048086;28;20439;-77
2022/05/12 20:38:49;;;;;;;7.10;1.90;;;20.10;66.50;;;;;;5044610;28;20451;-77
2022/05/12 20:41:35;;;;;;;5.60;1.97;;;20.00;61.80;;;;;;5049682;28;20594;-77
2022/05/12 20:44:23;;;;;;;6.70;2.20;;;20.10;60.80;;;;;;5048083;28;20815;-77
2022/05/12 20:47:08;;;;;;;6.90;1.83;;;20.20;59.50;;;;;;5051528;28;20967;-78
2022/05/12 20:49:54;;;;;;;6.77;2.20;;;20.20;59.70;;;;;;5043313;28;20459;-77
2022/05/12 20:52:39;;;;;;;5.97;2.30;;;20.30;57.80;;;;;;5046123;28;20447;-77
2022/05/12 20:55:26;;;;;;;4.47;1.57;;;20.30;58.30;;;;;;5045841;28;20615;-77
2022/05/12 20:58:12;;;;;;;6.10;2.20;;;20.30;58.90;;;;;;5044593;28;20838;-76
2022/05/12 21:01:00;;;;;;;5.13;2.53;;;20.40;58.80;;;;;;5043562;28;21458;-77
2022/05/12 21:03:46;;;;;;;4.30;1.63;;;20.40;59.40;;;;;;5048492;28;20486;-77
2022/05/12 21:06:32;;;;;;;4.00;1.80;;;20.40;57.00;;;;;;5052611;28;20482;-76
2022/05/12 21:09:18;;;;;;;3.47;1.53;;;20.40;57.10;;;;;;5042588;28;20998;-77
2022/05/12 21:12:04;;;;;;;4.97;1.97;;;20.40;58.30;;;;;;5044284;28;20915;-77
2022/05/12 21:14:50;;;;;;;3.20;1.40;;;20.30;58.00;;;;;;5046456;28;20970;-77
2022/05/12 21:17:38;;;;;;;7.87;2.23;;;20.30;58.40;;;;;;5047212;28;20642;-78
2022/05/12 21:20:24;;;;;;;7.30;2.00;;;20.20;60.10;;;;;;5043131;28;21276;-77
2022/05/12 21:23:10;;;;;;;10.13;2.00;;;20.20;60.10;;;;;;5049753;28;20502;-78
2022/05/12 21:25:56;;;;;;;3.47;1.40;;;20.20;60.10;;;;;;5045716;28;20439;-77
2022/05/12 21:28:42;;;;;;;6.20;2.00;;;20.10;58.70;;;;;;5042117;28;20960;-77
2022/05/12 21:31:27;;;;;;;6.30;2.03;;;20.10;58.60;;;;;;5041293;28;20443;-77
2022/05/12 21:34:14;;;;;;;5.93;2.00;;;20.10;58.80;;;;;;5045129;28;20467;-77
2022/05/12 21:37:00;;;;;;;6.73;1.70;;;20.20;58.50;;;;;;5046794;28;20813;-78
2022/05/12 21:39:45;;;;;;;7.20;2.67;;;20.10;59.20;;;;;;5044957;28;20446;-77
2022/05/12 21:42:31;;;;;;;7.00;1.97;;;20.00;58.60;;;;;;5042408;28;20570;-77
2022/05/12 21:48:38;;;;;;;5.00;1.80;;;20.00;59.60;;;;;;4963847;28;20439;-77
2022/05/12 21:51:25;;;;;;;4.47;1.73;;;20.10;60.70;;;;;;4968754;28;20459;-77
2022/05/12 21:54:11;;;;;;;8.33;2.13;;;20.00;58.60;;;;;;5042906;28;20451;-77
2022/05/12 22:01:27;;;;;;;4.00;1.80;;;20.10;59.90;;;;;;5043922;28;21176;-77
2022/05/12 22:03:06;;;;;;;6.87;2.10;;;20.10;61.10;;;;;;5049084;28;20807;-77
2022/05/12 22:05:52;;;;;;;4.67;1.43;;;20.10;60.30;;;;;;5050483;28;20435;-77
2022/05/12 22:08:39;;;;;;;4.83;2.20;;;20.20;58.60;;;;;;5048335;28;20454;-77
2022/05/12 22:12:17;;;;;;;6.33;1.70;;;20.00;58.60;;;;;;5051087;28;20447;-77
2022/05/12 22:14:35;;;;;;;7.80;1.70;;;20.10;61.20;;;;;;5038528;28;20466;-77
2022/05/12 22:17:30;;;;;;;4.87;1.93;;;19.90;59.00;;;;;;5045955;28;20442;-77
2022/05/12 22:20:16;;;;;;;7.00;2.20;;;19.90;61.00;;;;;;5052961;28;21006;-77
2022/05/12 22:23:01;;;;;;;4.43;1.73;;;19.80;63.20;;;;;;5051108;28;20601;-77
2022/05/12 22:25:49;;;;;;;4.07;1.80;;;19.80;65.10;;;;;;5046375;28;20440;-77
2022/05/12 22:28:35;;;;;;;9.80;2.40;;;19.80;65.20;;;;;;5040896;28;20819;-78
2022/05/12 22:31:20;;;;;;;4.77;2.00;;;19.80;63.20;;;;;;5051280;28;20998;-77
2022/05/12 22:34:07;;;;;;;9.90;1.80;;;19.80;62.60;;;;;;5056397;28;20839;-77
2022/05/12 22:36:53;;;;;;;8.77;2.27;;;19.70;65.00;;;;;;5049727;28;20452;-78
2022/05/12 22:39:38;;;;;;;5.63;2.13;;;19.70;66.10;;;;;;5044379;28;20603;-77
2022/05/12 22:42:25;;;;;;;5.40;1.93;;;19.70;67.10;;;;;;5056023;28;20434;-77
2022/05/12 22:45:12;;;;;;;10.20;1.97;;;19.60;68.10;;;;;;5048388;28;20503;-77
2022/05/12 22:47:57;;;;;;;5.97;2.03;;;19.50;70.10;;;;;;5042010;28;20475;-78
2022/05/12 22:50:43;;;;;;;7.50;2.10;;;19.50;73.20;;;;;;5050895;28;20570;-77
2022/05/12 22:53:29;;;;;;;8.20;2.07;;;19.30;75.80;;;;;;5044427;28;20972;-77
2022/05/12 22:56:15;;;;;;;5.00;1.97;;;19.30;69.90;;;;;;5050377;28;20577;-77
2022/05/12 22:59:03;;;;;;;4.80;1.80;;;19.30;74.00;;;;;;5043617;28;21085;-77
2022/05/12 23:01:48;;;;;;;9.63;2.00;;;19.40;72.80;;;;;;5051532;28;20967;-77
2022/05/12 23:04:34;;;;;;;6.83;1.70;;;19.40;71.70;;;;;;5047552;28;20573;-77
2022/05/12 23:07:20;;;;;;;6.80;1.70;;;19.30;66.90;;;;;;5047956;28;21006;-78
2022/05/12 23:10:06;;;;;;;7.57;2.73;;;19.20;69.40;;;;;;5049082;28;20826;-77
2022/05/12 23:12:52;;;;;;;4.80;1.70;;;19.30;67.40;;;;;;5050449;28;20866;-77
2022/05/12 23:15:39;;;;;;;2.80;1.43;;;19.40;68.50;;;;;;5059542;28;20478;-77
2022/05/12 23:18:24;;;;;;;5.70;2.13;;;19.30;64.00;;;;;;5047530;28;20443;-77
2022/05/12 23:24:13;;;;;;;9.27;2.70;;;19.40;63.90;;;;;;5028738;28;20506;-77
2022/05/12 23:26:59;;;;;;;5.33;2.00;;;19.40;63.90;;;;;;5038643;28;20451;-78
2022/05/12 23:29:45;;;;;;;15.00;2.40;;;19.50;64.50;;;;;;5051249;28;20493;-77
2022/05/12 23:32:32;;;;;;;7.10;2.03;;;19.50;63.50;;;;;;5053799;28;20960;-78
2022/05/12 23:35:19;;;;;;;7.17;2.23;;;19.50;64.50;;;;;;5050758;28;20624;-77
2022/05/12 23:38:05;;;;;;;7.37;2.47;;;19.50;64.50;;;;;;5042568;28;21186;-77
2022/05/12 23:40:51;;;;;;;10.30;2.33;;;19.40;64.40;;;;;;5055591;28;20466;-77
2022/05/12 23:43:37;;;;;;;7.17;2.33;;;19.40;66.00;;;;;;5039205;28;20567;-77
2022/05/12 23:46:23;;;;;;;6.63;1.80;;;19.30;66.10;;;;;;5040660;28;20441;-77
2022/05/12 23:49:12;;;;;;;5.30;1.70;;;19.30;69.20;;;;;;5043542;28;20431;-77
2022/05/12 23:51:58;;;;;;;12.80;1.50;;;19.20;67.70;;;;;;5058717;28;20478;-77
2022/05/12 23:54:44;;;;;;;4.20;1.90;;;19.30;68.00;;;;;;5055071;28;20622;-77
2022/05/12 23:57:30;;;;;;;9.30;2.20;;;19.20;74.00;;;;;;5042760;28;21249;-78
